createdAt,value
2018-12-14T00:00:30.383Z,24.5
2018-12-14T00:01:19.860Z,24.5
2018-12-14T00:02:10.269Z,24.5
2018-12-14T00:02:59.980Z,24.5
2018-12-14T00:03:50.043Z,24.5
2018-12-14T00:04:39.898Z,24.5
2018-12-14T00:05:30.217Z,24.5
2018-12-14T00:06:19.965Z,24.5
2018-12-14T00:07:10.853Z,24.5
2018-12-14T00:08:00.103Z,24.5
2018-12-14T00:08:50.957Z,24.5
2018-12-14T00:09:40.977Z,24.5
2018-12-14T00:10:31.037Z,24.4
2018-12-14T00:11:20.380Z,24.4
2018-12-14T00:12:09.802Z,24.4
2018-12-14T00:13:01.590Z,24.4
2018-12-14T00:13:50.744Z,24.4
2018-12-14T00:14:40.497Z,24.4
2018-12-14T00:32:57.017Z,24.3
2018-12-14T00:33:46.546Z,24.4
2018-12-14T00:34:36.539Z,24.3
2018-12-14T00:35:26.964Z,24.3
2018-12-14T00:36:16.644Z,24.3
2018-12-14T00:37:06.971Z,24.3
2018-12-14T00:37:56.297Z,24.3
2018-12-14T00:38:47.098Z,24.3
2018-12-14T00:39:36.862Z,24.3
2018-12-14T00:40:26.669Z,24.3
2018-12-14T00:41:17.531Z,24.3
2018-12-14T00:42:07.323Z,24.3
2018-12-14T00:42:57.065Z,24.3
2018-12-14T00:43:47.691Z,24.3
2018-12-14T00:44:36.690Z,24.3
2018-12-14T00:45:27.309Z,24.3
2018-12-14T00:46:17.617Z,24.3
2018-12-14T00:47:08.366Z,24.3
2018-12-14T00:47:57.710Z,24.3
2018-12-14T00:48:47.810Z,24.3
2018-12-14T00:49:37.298Z,24.3
2018-12-14T00:50:27.930Z,24.3
2018-12-14T00:51:17.958Z,24.3
2018-12-14T00:52:08.292Z,24.3
2018-12-14T00:52:57.512Z,24.3
2018-12-14T00:53:47.832Z,24.3
2018-12-14T00:54:37.943Z,24.3
2018-12-14T00:55:27.690Z,24.3
2018-12-14T00:56:17.757Z,24.3
2018-12-14T00:57:08.106Z,24.3
2018-12-14T00:57:58.162Z,24.3
2018-12-14T00:58:48.526Z,24.3
2018-12-14T00:59:38.551Z,24.3
2018-12-14T01:00:28.326Z,24.3
2018-12-14T01:01:18.484Z,24.3
2018-12-14T01:02:08.726Z,24.3
2018-12-14T01:02:57.666Z,24.3
2018-12-14T01:03:49.351Z,24.3
2018-12-14T01:04:38.634Z,24.2
2018-12-14T01:05:28.964Z,24.3
2018-12-14T01:06:19.982Z,24.3
2018-12-14T01:07:09.101Z,24.2
2018-12-14T01:07:59.158Z,24.2
2018-12-14T01:08:49.838Z,24.3
2018-12-14T01:09:39.006Z,24.2
2018-12-14T01:10:30.156Z,24.2
2018-12-14T01:11:19.098Z,24.2
2018-12-14T01:12:08.351Z,24.2
2018-12-14T01:12:59.502Z,24.2
2018-12-14T01:13:49.596Z,24.2
2018-12-14T01:14:39.856Z,24.2
2018-12-14T01:15:28.913Z,24.2
2018-12-14T01:16:20.003Z,24.2
2018-12-14T01:17:09.785Z,24.2
2018-12-14T01:17:58.743Z,24.2
2018-12-14T01:18:50.138Z,24.2
2018-12-14T01:19:39.418Z,24.2
2018-12-14T01:20:29.738Z,24.2
2018-12-14T01:21:20.348Z,24.2
2018-12-14T01:22:09.849Z,24.1
2018-12-14T01:22:59.666Z,24.2
2018-12-14T01:23:49.762Z,24.1
2018-12-14T01:24:40.626Z,24.1
2018-12-14T01:25:30.107Z,24.1
2018-12-14T01:26:20.745Z,24.1
2018-12-14T01:27:10.213Z,24.1
2018-12-14T01:28:00.272Z,24.1
2018-12-14T01:28:50.559Z,24.1
2018-12-14T01:29:40.460Z,24.1
2018-12-14T01:30:30.732Z,24.1
2018-12-14T01:31:20.232Z,24.1
2018-12-14T01:32:10.294Z,24.1
2018-12-14T01:33:00.597Z,24.1
2018-12-14T01:33:51.232Z,24.1
2018-12-14T01:34:40.465Z,24.1
2018-12-14T01:35:30.802Z,24.1
2018-12-14T01:36:21.152Z,24.1
2018-12-14T01:37:11.184Z,24.1
2018-12-14T01:38:00.707Z,24.1
2018-12-14T01:38:51.029Z,24.1
2018-12-14T01:39:41.739Z,24.1
2018-12-14T01:40:31.447Z,24.1
2018-12-14T01:41:20.512Z,24.1
2018-12-14T01:42:10.864Z,24.1
2018-12-14T01:43:00.839Z,24.1
2018-12-14T01:43:50.919Z,24.1
2018-12-14T01:44:40.941Z,24.1
2018-12-14T01:45:31.581Z,24.1
2018-12-14T01:46:21.064Z,24.1
2018-12-14T01:47:12.413Z,24.1
2018-12-14T01:48:01.931Z,24.1
2018-12-14T01:48:51.536Z,24.1
2018-12-14T01:49:41.742Z,24.1
2018-12-14T01:50:32.402Z,24.1
2018-12-14T01:51:21.123Z,24.1
2018-12-14T01:52:11.231Z,24.1
2018-12-14T01:53:02.021Z,24.1
2018-12-14T01:53:52.321Z,24.1
2018-12-14T01:54:42.376Z,24.1
2018-12-14T01:55:32.763Z,24
2018-12-14T01:56:22.821Z,24
2018-12-14T01:57:12.593Z,24.1
2018-12-14T01:58:02.923Z,24.1
2018-12-14T01:58:52.135Z,24.1
2018-12-14T01:59:42.150Z,24
2018-12-14T02:00:33.070Z,24
2018-12-14T02:01:22.670Z,24
2018-12-14T02:02:12.100Z,24
2018-12-14T02:03:02.445Z,24
2018-12-14T02:03:52.735Z,24
2018-12-14T02:04:42.869Z,24
2018-12-14T02:05:32.934Z,24
2018-12-14T02:06:23.007Z,24
2018-12-14T02:07:12.730Z,24
2018-12-14T02:08:03.358Z,24
2018-12-14T02:08:52.292Z,24
2018-12-14T02:09:43.965Z,24
2018-12-14T02:10:32.965Z,24
2018-12-14T02:11:23.862Z,24
2018-12-14T02:12:17.392Z,24
2018-12-14T02:13:03.404Z,24
2018-12-14T02:13:53.432Z,24
2018-12-14T02:14:43.545Z,24
2018-12-14T02:15:32.767Z,23.9
2018-12-14T02:16:23.341Z,23.9
2018-12-14T02:17:13.974Z,24
2018-12-14T02:18:04.309Z,23.9
2018-12-14T02:18:54.084Z,23.9
2018-12-14T02:19:43.359Z,23.9
2018-12-14T02:20:33.356Z,23.9
2018-12-14T02:21:23.724Z,23.9
2018-12-14T02:22:14.336Z,23.9
2018-12-14T02:23:03.605Z,23.9
2018-12-14T02:23:54.178Z,23.9
2018-12-14T02:24:44.803Z,23.9
2018-12-14T02:25:34.536Z,23.9
2018-12-14T02:26:24.328Z,23.9
2018-12-14T02:27:14.681Z,23.9
2018-12-14T02:28:04.173Z,23.9
2018-12-14T02:28:54.241Z,23.9
2018-12-14T02:29:44.281Z,23.9
2018-12-14T02:30:35.186Z,23.9
2018-12-14T02:31:23.892Z,23.9
2018-12-14T02:32:15.450Z,23.9
2018-12-14T02:33:04.265Z,23.9
2018-12-14T02:33:55.157Z,23.9
2018-12-14T02:34:45.218Z,23.9
2018-12-14T02:35:35.355Z,23.9
2018-12-14T02:36:25.198Z,23.9
2018-12-14T02:37:15.116Z,23.9
2018-12-14T02:38:05.167Z,23.9
2018-12-14T02:38:55.486Z,23.9
2018-12-14T02:39:45.404Z,23.9
2018-12-14T02:40:35.355Z,23.9
2018-12-14T02:41:25.693Z,23.9
2018-12-14T02:42:24.188Z,23.9
2018-12-14T02:43:06.116Z,23.9
2018-12-14T02:43:56.131Z,23.9
2018-12-14T02:44:46.215Z,23.9
2018-12-14T02:45:35.162Z,23.9
2018-12-14T02:46:26.047Z,23.9
2018-12-14T02:47:15.811Z,23.9
2018-12-14T02:48:06.390Z,23.9
2018-12-14T02:48:56.332Z,23.9
2018-12-14T02:49:46.649Z,23.9
2018-12-14T02:50:36.355Z,23.9
2018-12-14T02:51:26.387Z,23.9
2018-12-14T02:52:16.446Z,23.9
2018-12-14T02:53:06.025Z,23.9
2018-12-14T02:53:56.300Z,23.9
2018-12-14T02:54:46.590Z,23.9
2018-12-14T02:55:36.121Z,23.9
2018-12-14T02:56:26.517Z,23.8
2018-12-14T02:57:16.517Z,23.8
2018-12-14T02:58:06.092Z,23.8
2018-12-14T02:58:57.179Z,23.9
2018-12-14T02:59:46.994Z,23.8
2018-12-14T03:00:37.022Z,23.8
2018-12-14T03:01:27.101Z,23.8
2018-12-14T03:02:16.179Z,23.8
2018-12-14T03:03:06.174Z,23.8
2018-12-14T03:03:57.049Z,23.8
2018-12-14T03:04:47.171Z,23.8
2018-12-14T03:05:36.407Z,23.8
2018-12-14T03:06:27.542Z,23.8
2018-12-14T03:07:17.516Z,23.8
2018-12-14T03:08:06.811Z,23.8
2018-12-14T03:08:57.191Z,23.8
2018-12-14T03:09:47.380Z,23.8
2018-12-14T03:10:37.168Z,23.8
2018-12-14T03:11:27.801Z,23.8
2018-12-14T03:12:17.839Z,23.8
2018-12-14T03:13:07.903Z,23.8
2018-12-14T03:13:58.221Z,23.8
2018-12-14T03:14:48.277Z,23.8
2018-12-14T03:15:38.161Z,23.8
2018-12-14T03:16:28.109Z,23.8
2018-12-14T03:17:18.161Z,23.8
2018-12-14T03:18:07.147Z,23.8
2018-12-14T03:18:58.083Z,23.8
2018-12-14T03:19:47.804Z,23.8
2018-12-14T03:20:38.468Z,23.8
2018-12-14T03:21:28.841Z,23.8
2018-12-14T03:22:18.816Z,23.8
2018-12-14T03:23:08.293Z,23.8
2018-12-14T03:23:58.433Z,23.8
2018-12-14T03:24:48.439Z,23.8
2018-12-14T03:25:38.451Z,23.8
2018-12-14T03:26:28.538Z,23.8
2018-12-14T03:27:19.248Z,23.8
2018-12-14T03:28:08.985Z,23.8
2018-12-14T03:28:58.440Z,23.8
2018-12-14T03:29:49.338Z,23.8
2018-12-14T03:30:39.276Z,23.8
2018-12-14T03:31:29.425Z,23.8
2018-12-14T03:32:19.384Z,23.8
2018-12-14T03:33:09.271Z,23.8
2018-12-14T03:33:59.630Z,23.8
2018-12-14T03:34:49.255Z,23.8
2018-12-14T03:35:39.164Z,23.8
2018-12-14T03:36:29.854Z,23.8
2018-12-14T03:37:18.533Z,23.8
2018-12-14T03:38:09.466Z,23.8
2018-12-14T03:38:59.407Z,23.8
2018-12-14T03:39:48.420Z,23.7
2018-12-14T03:40:39.536Z,23.7
2018-12-14T03:41:29.865Z,23.7
2018-12-14T03:42:19.714Z,23.7
2018-12-14T03:43:08.590Z,23.7
2018-12-14T03:43:59.827Z,23.8
2018-12-14T03:44:49.072Z,23.7
2018-12-14T03:45:40.222Z,23.7
2018-12-14T03:46:29.780Z,23.7
2018-12-14T03:47:19.595Z,23.7
2018-12-14T03:48:09.918Z,23.7
2018-12-14T03:48:59.910Z,23.7
2018-12-14T03:49:49.611Z,23.7
2018-12-14T03:50:39.473Z,23.7
2018-12-14T03:51:29.883Z,23.7
2018-12-14T03:52:20.295Z,23.7
2018-12-14T03:53:10.214Z,23.7
2018-12-14T03:54:00.005Z,23.7
2018-12-14T03:54:50.035Z,23.7
2018-12-14T03:55:40.392Z,23.7
2018-12-14T03:56:30.755Z,23.7
2018-12-14T03:57:20.507Z,23.7
2018-12-14T03:58:10.033Z,23.7
2018-12-14T03:59:00.868Z,23.7
2018-12-14T03:59:50.449Z,23.7
2018-12-14T04:00:40.493Z,23.7
2018-12-14T04:01:31.305Z,23.6
2018-12-14T04:02:20.914Z,23.7
2018-12-14T04:03:10.913Z,23.7
2018-12-14T04:04:00.683Z,23.7
2018-12-14T04:04:51.283Z,23.6
2018-12-14T04:05:40.829Z,23.6
2018-12-14T04:06:30.868Z,23.6
2018-12-14T04:07:20.942Z,23.6
2018-12-14T04:08:11.331Z,23.6
2018-12-14T04:09:01.602Z,23.6
2018-12-14T04:09:51.590Z,23.6
2018-12-14T04:10:41.411Z,23.6
2018-12-14T04:11:31.269Z,23.6
2018-12-14T04:12:21.244Z,23.6
2018-12-14T04:13:11.291Z,23.6
2018-12-14T04:14:01.921Z,23.6
2018-12-14T04:14:51.450Z,23.6
2018-12-14T04:15:41.241Z,23.6
2018-12-14T04:16:31.242Z,23.6
2018-12-14T04:17:21.880Z,23.6
2018-12-14T04:18:11.894Z,23.6
2018-12-14T04:19:01.986Z,23.6
2018-12-14T04:19:52.304Z,23.6
2018-12-14T04:20:42.103Z,23.6
2018-12-14T04:21:31.848Z,23.6
2018-12-14T04:22:22.261Z,23.6
2018-12-14T04:23:12.006Z,23.6
2018-12-14T04:24:02.128Z,23.6
2018-12-14T04:24:52.378Z,23.6
2018-12-14T04:25:42.466Z,23.6
2018-12-14T04:26:31.970Z,23.6
2018-12-14T04:27:22.315Z,23.6
2018-12-14T04:28:12.447Z,23.6
2018-12-14T04:29:02.418Z,23.6
2018-12-14T04:29:52.462Z,23.6
2018-12-14T04:30:42.777Z,23.6
2018-12-14T04:31:32.870Z,23.6
2018-12-14T04:32:22.916Z,23.6
2018-12-14T04:33:12.992Z,23.6
2018-12-14T04:34:03.052Z,23.6
2018-12-14T04:34:53.198Z,23.6
2018-12-14T04:35:43.108Z,23.6
2018-12-14T04:36:33.298Z,23.6
2018-12-14T04:37:22.999Z,23.6
2018-12-14T04:38:13.579Z,23.6
2018-12-14T04:39:03.109Z,23.6
2018-12-14T04:39:53.165Z,23.6
2018-12-14T04:40:42.974Z,23.6
2018-12-14T04:41:32.743Z,23.6
2018-12-14T04:42:23.028Z,23.6
2018-12-14T04:43:13.422Z,23.6
2018-12-14T04:44:03.402Z,23.6
2018-12-14T04:44:53.761Z,23.6
2018-12-14T05:02:17.947Z,23.5
2018-12-14T05:03:07.770Z,23.5
2018-12-14T05:03:58.612Z,23.5
2018-12-14T05:04:47.872Z,23.5
2018-12-14T05:05:37.643Z,23.5
2018-12-14T05:06:27.688Z,23.5
2018-12-14T05:07:18.864Z,23.5
2018-12-14T05:08:08.642Z,23.5
2018-12-14T05:08:58.647Z,23.4
2018-12-14T05:09:48.507Z,23.5
2018-12-14T05:10:38.370Z,23.5
2018-12-14T05:11:29.097Z,23.4
2018-12-14T05:12:18.376Z,23.4
2018-12-14T05:13:08.717Z,23.4
2018-12-14T05:13:59.045Z,23.5
2018-12-14T05:14:48.301Z,23.4
2018-12-14T05:15:39.291Z,23.4
2018-12-14T05:16:28.888Z,23.4
2018-12-14T05:17:19.254Z,23.4
2018-12-14T05:18:08.769Z,23.4
2018-12-14T05:18:59.434Z,23.4
2018-12-14T05:19:49.148Z,23.4
2018-12-14T05:20:38.651Z,23.4
2018-12-14T05:21:28.431Z,23.4
2018-12-14T05:22:19.653Z,23.4
2018-12-14T05:23:09.441Z,23.4
2018-12-14T05:23:59.433Z,23.4
2018-12-14T05:24:49.483Z,23.4
2018-12-14T05:25:39.540Z,23.4
2018-12-14T05:26:31.145Z,23.4
2018-12-14T05:27:19.763Z,23.4
2018-12-14T05:28:09.985Z,23.4
2018-12-14T05:28:59.478Z,23.4
2018-12-14T05:29:49.840Z,23.4
2018-12-14T05:30:40.168Z,23.4
2018-12-14T05:31:29.883Z,23.4
2018-12-14T05:32:19.760Z,23.4
2018-12-14T05:33:10.290Z,23.4
2018-12-14T05:33:59.875Z,23.4
2018-12-14T05:34:50.392Z,23.4
2018-12-14T05:35:40.235Z,23.4
2018-12-14T05:36:29.746Z,23.4
2018-12-14T05:37:21.087Z,23.4
2018-12-14T05:38:11.167Z,23.4
2018-12-14T05:39:00.197Z,23.4
2018-12-14T05:39:50.999Z,23.4
2018-12-14T05:40:40.797Z,23.4
2018-12-14T05:41:32.360Z,23.4
2018-12-14T05:42:20.357Z,23.4
2018-12-14T05:43:10.507Z,23.4
2018-12-14T05:44:00.477Z,23.4
2018-12-14T05:44:50.848Z,23.4
2018-12-14T05:45:40.941Z,23.4
2018-12-14T05:46:30.926Z,23.4
2018-12-14T05:47:21.530Z,23.4
2018-12-14T05:48:11.379Z,23.4
2018-12-14T05:49:01.338Z,23.4
2018-12-14T05:49:50.849Z,23.4
2018-12-14T05:50:41.036Z,23.4
2018-12-14T05:51:31.810Z,23.4
2018-12-14T05:52:21.119Z,23.4
2018-12-14T05:53:11.684Z,23.4
2018-12-14T05:54:00.944Z,23.4
2018-12-14T05:54:51.569Z,23.4
2018-12-14T05:55:41.835Z,23.4
2018-12-14T05:56:31.691Z,23.4
2018-12-14T05:57:21.756Z,23.4
2018-12-14T05:58:12.566Z,23.4
2018-12-14T05:59:01.961Z,23.4
2018-12-14T05:59:51.650Z,23.3
2018-12-14T06:00:42.174Z,23.4
2018-12-14T06:01:32.018Z,23.3
2018-12-14T06:02:21.286Z,23.3
2018-12-14T06:03:12.118Z,23.3
2018-12-14T06:04:02.440Z,23.3
2018-12-14T06:04:53.568Z,23.3
2018-12-14T06:05:42.318Z,23.3
2018-12-14T06:06:32.121Z,23.3
2018-12-14T06:07:22.920Z,23.3
2018-12-14T06:08:11.852Z,23.3
2018-12-14T06:09:02.823Z,23.3
2018-12-14T06:09:52.621Z,23.3
2018-12-14T06:10:41.861Z,23.4
2018-12-14T06:11:32.943Z,23.3
2018-12-14T06:12:21.673Z,23.3
2018-12-14T06:13:14.781Z,23.3
2018-12-14T06:14:02.618Z,23.3
2018-12-14T06:14:53.687Z,23.3
2018-12-14T06:15:43.290Z,23.3
2018-12-14T06:16:33.005Z,23.3
2018-12-14T06:17:23.192Z,23.3
2018-12-14T06:18:12.915Z,23.2
2018-12-14T06:19:02.689Z,23.2
2018-12-14T06:19:53.030Z,23.2
2018-12-14T06:20:43.372Z,23.2
2018-12-14T06:21:33.439Z,23.2
2018-12-14T06:22:23.015Z,23.1
2018-12-14T06:23:13.264Z,23.1
2018-12-14T06:24:03.577Z,23.1
2018-12-14T06:24:53.942Z,23.1
2018-12-14T06:25:43.859Z,23.1
2018-12-14T06:26:33.196Z,23.1
2018-12-14T06:27:24.081Z,23
2018-12-14T06:28:13.801Z,23
2018-12-14T06:29:03.942Z,23
2018-12-14T06:29:53.981Z,23
2018-12-14T06:30:44.087Z,22.9
2018-12-14T06:31:33.469Z,22.9
2018-12-14T06:32:24.656Z,22.9
2018-12-14T06:33:13.106Z,22.9
2018-12-14T06:34:03.918Z,22.9
2018-12-14T06:34:55.055Z,22.9
2018-12-14T06:35:45.111Z,22.9
2018-12-14T06:36:34.095Z,22.9
2018-12-14T06:37:24.986Z,22.9
2018-12-14T06:38:15.061Z,22.9
2018-12-14T06:39:04.606Z,22.9
2018-12-14T06:39:55.661Z,22.8
2018-12-14T06:40:45.223Z,22.8
2018-12-14T06:41:35.801Z,22.8
2018-12-14T06:42:25.055Z,22.8
2018-12-14T06:43:21.101Z,22.8
2018-12-14T06:44:04.896Z,22.8
2018-12-14T06:44:55.220Z,22.8
2018-12-14T06:45:45.005Z,22.8
2018-12-14T06:46:35.076Z,22.8
2018-12-14T06:47:25.669Z,22.8
2018-12-14T06:48:15.742Z,22.8
2018-12-14T06:49:05.513Z,22.8
2018-12-14T06:49:55.857Z,22.8
2018-12-14T06:50:45.685Z,22.8
2018-12-14T06:51:35.408Z,22.8
2018-12-14T06:52:25.480Z,22.8
2018-12-14T06:53:16.058Z,22.7
2018-12-14T06:54:06.482Z,22.7
2018-12-14T06:54:55.417Z,22.7
2018-12-14T06:55:46.541Z,22.7
2018-12-14T06:56:36.027Z,22.7
2018-12-14T06:57:27.532Z,22.7
2018-12-14T06:58:16.147Z,22.7
2018-12-14T06:59:06.547Z,22.7
2018-12-14T06:59:56.594Z,22.6
2018-12-14T07:00:46.877Z,22.6
2018-12-14T07:01:36.139Z,22.6
2018-12-14T07:02:26.989Z,22.6
2018-12-14T07:03:17.905Z,22.6
2018-12-14T07:04:06.269Z,22.6
2018-12-14T07:04:56.048Z,22.6
2018-12-14T07:05:47.196Z,22.6
2018-12-14T07:06:36.801Z,22.6
2018-12-14T07:07:27.062Z,22.6
2018-12-14T07:08:16.551Z,22.6
2018-12-14T07:09:06.904Z,22.6
2018-12-14T07:09:56.669Z,22.6
2018-12-14T07:10:47.261Z,22.6
2018-12-14T07:11:36.023Z,22.6
2018-12-14T07:12:27.754Z,22.6
2018-12-14T07:13:24.178Z,22.6
2018-12-14T07:14:08.874Z,22.6
2018-12-14T07:14:57.593Z,22.6
2018-12-14T07:15:47.668Z,22.6
2018-12-14T07:16:37.958Z,22.6
2018-12-14T07:17:28.335Z,22.6
2018-12-14T07:18:17.783Z,22.6
2018-12-14T07:19:07.053Z,22.6
2018-12-14T07:19:57.648Z,22.6
2018-12-14T07:20:47.688Z,22.6
2018-12-14T07:21:37.745Z,22.6
2018-12-14T07:22:27.820Z,22.6
2018-12-14T07:23:17.851Z,22.6
2018-12-14T07:24:08.240Z,22.6
2018-12-14T07:24:57.962Z,22.5
2018-12-14T07:25:48.315Z,22.6
2018-12-14T07:26:38.115Z,22.6
2018-12-14T07:27:27.307Z,22.5
2018-12-14T07:28:18.479Z,22.6
2018-12-14T07:29:09.017Z,22.5
2018-12-14T07:29:58.857Z,22.5
2018-12-14T07:30:48.638Z,22.5
2018-12-14T07:31:38.697Z,22.5
2018-12-14T07:32:28.510Z,22.5
2018-12-14T07:33:18.243Z,22.5
2018-12-14T07:34:08.559Z,22.5
2018-12-14T07:34:58.122Z,22.5
2018-12-14T07:35:49.029Z,22.5
2018-12-14T07:36:39.629Z,22.5
2018-12-14T07:37:29.374Z,22.5
2018-12-14T07:38:19.153Z,22.5
2018-12-14T07:39:09.257Z,22.5
2018-12-14T07:39:59.259Z,22.5
2018-12-14T07:40:49.604Z,22.5
2018-12-14T07:41:39.387Z,22.5
2018-12-14T07:42:30.007Z,22.5
2018-12-14T07:43:18.931Z,22.5
2018-12-14T07:44:08.994Z,22.5
2018-12-14T07:45:00.326Z,22.5
2018-12-14T07:45:49.399Z,22.4
2018-12-14T07:46:39.441Z,22.5
2018-12-14T07:47:29.753Z,22.5
2018-12-14T07:48:19.833Z,22.5
2018-12-14T07:49:09.908Z,22.4
2018-12-14T07:49:59.651Z,22.4
2018-12-14T07:50:50.296Z,22.4
2018-12-14T07:51:40.375Z,22.4
2018-12-14T07:52:30.141Z,22.4
2018-12-14T07:53:20.186Z,22.4
2018-12-14T07:54:10.231Z,22.4
2018-12-14T07:55:00.288Z,22.4
2018-12-14T07:55:50.625Z,22.4
2018-12-14T07:56:40.196Z,22.4
2018-12-14T07:57:29.926Z,22.4
2018-12-14T07:58:19.697Z,22.4
2018-12-14T07:59:10.861Z,22.4
2018-12-14T08:00:00.895Z,22.4
2018-12-14T08:00:50.699Z,22.4
2018-12-14T08:01:41.041Z,22.4
2018-12-14T08:02:32.531Z,22.4
2018-12-14T08:03:20.868Z,22.4
2018-12-14T08:04:10.992Z,22.4
2018-12-14T08:05:01.285Z,22.4
2018-12-14T08:05:51.328Z,22.4
2018-12-14T08:06:40.811Z,22.4
2018-12-14T08:07:31.685Z,22.4
2018-12-14T08:08:20.943Z,22.4
2018-12-14T08:09:11.253Z,22.4
2018-12-14T08:10:01.095Z,22.4
2018-12-14T08:10:51.380Z,22.4
2018-12-14T08:11:40.318Z,22.4
2018-12-14T08:12:31.503Z,22.4
2018-12-14T08:13:22.885Z,22.4
2018-12-14T08:14:11.212Z,22.4
2018-12-14T08:15:00.890Z,22.4
2018-12-14T08:15:50.950Z,22.4
2018-12-14T08:16:41.292Z,22.4
2018-12-14T08:17:31.338Z,22.4
2018-12-14T08:18:21.110Z,22.4
2018-12-14T08:19:12.217Z,22.4
2018-12-14T08:20:01.992Z,22.4
2018-12-14T08:20:51.562Z,22.4
2018-12-14T08:21:40.714Z,22.4
2018-12-14T08:22:31.900Z,22.4
2018-12-14T08:23:21.912Z,22.4
2018-12-14T08:24:11.997Z,22.4
2018-12-14T08:25:02.311Z,22.4
2018-12-14T08:25:52.662Z,22.4
2018-12-14T08:26:41.614Z,22.4
2018-12-14T08:27:32.239Z,22.4
2018-12-14T08:28:22.589Z,22.4
2018-12-14T08:29:12.359Z,22.4
2018-12-14T08:30:01.928Z,22.4
2018-12-14T08:30:52.457Z,22.4
2018-12-14T08:31:42.504Z,22.4
2018-12-14T08:32:32.856Z,22.4
2018-12-14T08:33:22.934Z,22.4
2018-12-14T08:34:12.973Z,22.4
2018-12-14T08:35:03.017Z,22.3
2018-12-14T08:35:53.363Z,22.4
2018-12-14T08:36:43.139Z,22.3
2018-12-14T08:37:32.943Z,22.4
2018-12-14T08:38:22.424Z,22.4
2018-12-14T08:39:13.286Z,22.4
2018-12-14T08:40:03.362Z,22.3
2018-12-14T08:40:53.928Z,22.4
2018-12-14T08:41:44.486Z,22.4
2018-12-14T08:42:33.261Z,22.3
2018-12-14T08:43:22.553Z,22.3
2018-12-14T08:44:13.975Z,22.4
2018-12-14T08:45:03.516Z,22.3
2018-12-14T08:45:53.763Z,22.3
2018-12-14T08:46:43.813Z,22.3
2018-12-14T08:47:34.186Z,22.3
2018-12-14T08:48:23.399Z,22.3
2018-12-14T08:49:13.726Z,22.3
2018-12-14T08:50:03.804Z,22.3
2018-12-14T08:50:54.060Z,22.3
2018-12-14T08:51:44.168Z,22.3
2018-12-14T08:52:33.942Z,22.3
2018-12-14T08:53:23.735Z,22.3
2018-12-14T08:54:14.398Z,22.3
2018-12-14T08:55:04.401Z,22.3
2018-12-14T08:55:54.455Z,22.3
2018-12-14T08:56:44.780Z,22.3
2018-12-14T08:57:34.906Z,22.3
2018-12-14T08:58:24.625Z,22.3
2018-12-14T08:59:14.124Z,22.3
2018-12-14T09:00:04.513Z,22.3
2018-12-14T09:00:54.507Z,22.3
2018-12-14T09:16:40.108Z,22.3
2018-12-14T09:17:30.002Z,22.3
2018-12-14T09:18:20.927Z,22.3
2018-12-14T14:15:34.490Z,21.7
2018-12-14T14:16:24.839Z,21.7
2018-12-14T14:17:14.369Z,21.7
2018-12-14T14:18:04.112Z,21.8
2018-12-14T14:18:54.715Z,21.7
2018-12-14T14:19:44.797Z,21.7
2018-12-14T14:20:34.559Z,21.7
2018-12-14T14:21:25.171Z,21.7
2018-12-14T14:22:14.127Z,21.7
2018-12-14T14:23:06.268Z,21.7
2018-12-14T14:23:55.074Z,21.7
2018-12-14T14:24:45.126Z,21.7
2018-12-14T14:25:34.614Z,21.7
2018-12-14T14:26:24.671Z,21.7
2018-12-14T14:27:14.746Z,21.7
2018-12-14T14:28:05.344Z,21.7
2018-12-14T14:28:55.400Z,21.7
2018-12-14T14:29:45.474Z,21.7
2018-12-14T14:30:35.789Z,21.7
2018-12-14T14:31:25.844Z,21.7
2018-12-14T14:32:15.348Z,21.7
2018-12-14T14:33:04.316Z,21.7
2018-12-14T14:33:55.476Z,21.7
2018-12-14T14:34:45.789Z,21.7
2018-12-14T14:35:34.196Z,21.7
2018-12-14T14:36:26.151Z,21.7
2018-12-14T14:37:15.698Z,21.6
2018-12-14T14:38:06.035Z,21.7
2018-12-14T14:38:57.254Z,21.7
2018-12-14T14:39:45.856Z,21.7
2018-12-14T14:40:35.881Z,21.6
2018-12-14T14:41:26.313Z,21.7
2018-12-14T14:42:16.036Z,21.7
2018-12-14T14:43:06.078Z,21.7
2018-12-14T14:43:55.295Z,21.6
2018-12-14T14:44:45.936Z,21.6
2018-12-14T14:45:36.505Z,21.6
2018-12-14T14:46:26.840Z,21.6
2018-12-14T14:47:16.087Z,21.6
2018-12-14T14:48:06.703Z,21.6
2018-12-14T14:48:56.210Z,21.6
2018-12-14T14:49:46.540Z,21.6
2018-12-14T14:50:36.885Z,21.6
2018-12-14T14:51:27.447Z,21.6
2018-12-14T14:52:16.730Z,21.6
2018-12-14T14:53:06.516Z,21.6
2018-12-14T14:53:56.567Z,21.6
2018-12-14T14:54:46.604Z,21.6
2018-12-14T14:55:37.578Z,21.6
2018-12-14T14:56:26.980Z,21.6
2018-12-14T14:57:17.622Z,21.6
2018-12-14T14:58:07.919Z,21.6
2018-12-14T14:58:56.341Z,21.6
2018-12-14T14:59:47.787Z,21.6
2018-12-14T15:00:37.317Z,21.6
2018-12-14T15:01:27.899Z,21.6
2018-12-14T15:02:17.124Z,21.6
2018-12-14T15:03:07.765Z,21.6
2018-12-14T15:03:58.102Z,21.6
2018-12-14T15:04:48.129Z,21.6
2018-12-14T15:05:37.889Z,21.6
2018-12-14T15:06:27.655Z,21.6
2018-12-14T15:07:18.286Z,21.6
2018-12-14T15:08:07.519Z,21.6
2018-12-14T15:08:58.127Z,21.6
2018-12-14T15:09:47.643Z,21.6
2018-12-14T15:10:37.972Z,21.6
2018-12-14T15:11:28.284Z,21.6
2018-12-14T15:12:17.829Z,21.6
2018-12-14T15:13:08.933Z,21.6
2018-12-14T15:13:57.908Z,21.6
2018-12-14T15:14:49.759Z,21.6
2018-12-14T15:15:38.869Z,21.6
2018-12-14T15:16:28.642Z,21.6
2018-12-14T15:17:18.129Z,21.6
2018-12-14T15:18:08.193Z,21.6
2018-12-14T15:18:57.978Z,21.6
2018-12-14T15:19:48.643Z,21.6
2018-12-14T15:20:38.626Z,21.6
2018-12-14T15:21:28.469Z,21.6
2018-12-14T15:22:19.268Z,21.6
2018-12-14T15:23:09.336Z,21.6
2018-12-14T15:23:59.230Z,21.6
2018-12-14T15:24:48.658Z,21.6
2018-12-14T15:25:38.990Z,21.6
2018-12-14T15:26:29.321Z,21.6
2018-12-14T15:27:19.387Z,21.6
2018-12-14T15:28:09.758Z,21.6
2018-12-14T15:28:58.908Z,21.6
2018-12-14T15:29:49.606Z,21.6
2018-12-14T15:30:39.042Z,21.6
2018-12-14T15:31:29.332Z,21.6
2018-12-14T15:32:19.651Z,21.6
2018-12-14T15:33:09.570Z,21.6
2018-12-14T15:34:00.091Z,21.6
2018-12-14T15:34:49.053Z,21.6
2018-12-14T15:35:39.939Z,21.6
2018-12-14T15:36:29.993Z,21.6
2018-12-14T15:37:20.086Z,21.6
2018-12-14T15:38:09.834Z,21.6
2018-12-14T15:38:59.610Z,21.6
2018-12-14T15:39:50.212Z,21.6
2018-12-14T15:40:41.420Z,21.6
2018-12-14T15:41:30.317Z,21.6
2018-12-14T15:42:20.660Z,21.6
2018-12-14T15:43:10.744Z,21.6
2018-12-14T15:44:00.512Z,21.6
2018-12-14T15:44:50.280Z,21.6
2018-12-14T15:45:40.363Z,21.6
2018-12-14T15:46:32.147Z,21.6
2018-12-14T15:47:20.539Z,21.6
2018-12-14T15:48:10.752Z,21.6
2018-12-14T15:49:00.873Z,21.6
2018-12-14T15:49:50.359Z,21.6
2018-12-14T15:50:40.947Z,21.6
2018-12-14T15:51:30.976Z,21.6
2018-12-14T15:52:21.629Z,21.6
2018-12-14T15:53:11.144Z,21.6
2018-12-14T15:54:00.902Z,21.5
2018-12-14T15:54:51.776Z,21.5
2018-12-14T15:55:41.309Z,21.5
2018-12-14T15:56:31.167Z,21.5
2018-12-14T15:57:21.436Z,21.5
2018-12-14T15:58:10.901Z,21.5
2018-12-14T15:59:00.494Z,21.5
2018-12-14T15:59:51.301Z,21.5
2018-12-14T16:00:41.894Z,21.6
2018-12-14T16:01:31.514Z,21.6
2018-12-14T16:02:21.526Z,21.5
2018-12-14T16:03:11.029Z,21.5
2018-12-14T16:04:01.603Z,21.5
2018-12-14T16:04:50.896Z,21.5
2018-12-14T16:05:41.201Z,21.5
2018-12-14T16:06:32.098Z,21.5
2018-12-14T16:07:22.341Z,21.5
2018-12-14T16:08:11.585Z,21.5
2018-12-14T16:09:01.713Z,21.5
2018-12-14T16:09:50.965Z,21.5
2018-12-14T16:10:42.375Z,21.5
2018-12-14T16:11:32.397Z,21.5
2018-12-14T16:12:22.225Z,21.5
2018-12-14T16:13:12.243Z,21.5
2018-12-14T16:14:02.898Z,21.5
2018-12-14T16:14:52.179Z,21.5
2018-12-14T16:15:41.756Z,21.5
2018-12-14T16:16:32.637Z,21.5
2018-12-14T16:17:22.750Z,21.5
2018-12-14T16:18:13.320Z,21.5
2018-12-14T16:19:03.550Z,21.5
2018-12-14T16:19:52.825Z,21.5
2018-12-14T16:20:43.548Z,21.5
2018-12-14T16:21:33.352Z,21.4
2018-12-14T16:22:22.993Z,21.5
2018-12-14T16:23:13.453Z,21.4
2018-12-14T16:24:03.263Z,21.5
2018-12-14T16:24:52.605Z,21.4
2018-12-14T16:25:42.988Z,21.4
2018-12-14T16:26:33.087Z,21.4
2018-12-14T16:27:24.020Z,21.4
2018-12-14T16:28:13.543Z,21.4
2018-12-14T16:29:03.662Z,21.4
2018-12-14T16:29:53.899Z,21.4
2018-12-14T16:30:43.500Z,21.4
2018-12-14T16:31:33.589Z,21.4
2018-12-14T16:32:23.800Z,21.4
2018-12-14T16:33:13.124Z,21.4
2018-12-14T16:34:03.880Z,21.4
2018-12-14T16:34:52.666Z,21.4
2018-12-14T16:35:43.332Z,21.3
2018-12-14T16:36:33.602Z,21.3
2018-12-14T16:37:23.444Z,21.3
2018-12-14T16:38:12.619Z,21.3
2018-12-14T16:39:04.096Z,21.2
2018-12-14T16:39:53.838Z,21.2
2018-12-14T16:42:23.748Z,21.1
2018-12-14T16:43:14.034Z,21.1
2018-12-14T16:44:03.567Z,21.1
2018-12-14T16:44:54.481Z,21
2018-12-14T16:45:45.592Z,21
2018-12-14T16:46:34.611Z,20.9
2018-12-14T16:47:24.078Z,20.9
2018-12-14T16:48:14.941Z,20.9
2018-12-14T16:49:03.905Z,20.9
2018-12-14T16:49:54.293Z,20.9
2018-12-14T16:50:44.016Z,20.9
2018-12-14T16:51:34.073Z,20.8
2018-12-14T16:52:25.080Z,20.8
2018-12-14T16:53:14.748Z,20.8
2018-12-14T16:54:04.811Z,20.8
2018-12-14T16:54:54.896Z,20.8